Time;durP1;ratioP1;P1;durP2;ratioP2;P2;SDS_P1;SDS_P2;PMS_P1;PMS_P2;Temp;Humidity;BMP_temperature;BMP_pressure;BME280_temperature;BME280_humidity;BME280_pressure;Samples;Min_cycle;Max_cycle;Signal;HPM_P1;HPM_P2
2022/01/22 00:00:18;;;;;;;3.88;2.20;;;;;;;2.94;75.34;102272.19;4987670;28;20053;-52
2022/01/22 00:02:45;;;;;;;8.27;3.20;;;;;;;2.96;75.80;102262.91;4983593;28;20090;-49
2022/01/22 00:05:14;;;;;;;8.48;4.25;;;;;;;3.00;76.07;102274.25;4982818;28;20050;-54
2022/01/22 00:07:41;;;;;;;8.35;3.58;;;;;;;2.99;75.59;102263.09;4962852;28;20553;-52
2022/01/22 00:10:14;;;;;;;5.65;3.05;;;;;;;2.95;76.54;102250.91;4969535;28;20389;-52
2022/01/22 00:14:23;;;;;;;9.77;4.15;;;;;;;2.93;75.48;102252.47;4968801;28;20058;-50
2022/01/22 00:15:31;;;;;;;7.00;2.83;;;;;;;2.93;75.65;102252.47;4975366;28;20510;-55
2022/01/22 00:17:58;;;;;;;9.88;3.75;;;;;;;2.94;75.70;102260.25;4991051;28;20750;-54
2022/01/22 00:20:28;;;;;;;7.22;3.42;;;;;;;2.97;75.97;102254.44;4986876;28;20642;-55
2022/01/22 00:22:55;;;;;;;6.20;2.95;;;;;;;2.95;75.42;102248.34;4987883;28;20054;-54
2022/01/22 00:25:23;;;;;;;8.30;2.40;;;;;;;2.90;75.30;102237.78;4987954;28;20449;-54
2022/01/22 00:27:51;;;;;;;9.93;3.63;;;;;;;2.90;75.16;102235.22;4987997;28;20120;-55
2022/01/22 00:30:21;;;;;;;9.00;3.05;;;;;;;2.88;76.49;102239.38;4987958;28;21229;-55
2022/01/22 00:32:48;;;;;;;6.90;3.53;;;;;;;2.88;75.97;102238.50;4975083;28;20046;-55
2022/01/22 00:35:15;;;;;;;5.05;2.25;;;;;;;2.85;75.11;102233.16;4989596;28;20050;-53
2022/01/22 00:37:45;;;;;;;6.20;2.42;;;;;;;2.82;75.74;102237.31;4989481;28;20120;-55
2022/01/22 00:40:13;;;;;;;5.95;3.13;;;;;;;2.86;75.64;102228.16;4973730;28;20109;-55
2022/01/22 00:42:40;;;;;;;6.18;3.25;;;;;;;2.89;75.19;102225.78;4990789;28;20042;-52
2022/01/22 00:45:08;;;;;;;8.27;3.97;;;;;;;2.90;75.11;102221.56;4989741;28;20050;-53
2022/01/22 00:47:35;;;;;;;10.25;3.95;;;;;;;2.90;76.05;102221.56;4968380;28;20053;-52
2022/01/22 00:50:03;;;;;;;14.35;4.32;;;;;;;2.92;76.18;102230.22;4986663;28;20050;-52
2022/01/22 00:52:29;;;;;;;8.20;3.30;;;;;;;2.92;75.24;102232.78;4981242;28;20108;-56
2022/01/22 00:54:56;;;;;;;8.50;3.75;;;;;;;2.95;76.31;102226.16;4987948;28;20058;-52
2022/01/22 00:57:23;;;;;;;10.43;4.20;;;;;;;2.97;76.60;102220.28;4985537;28;20054;-51
2022/01/22 00:59:49;;;;;;;4.18;1.70;;;;;;;2.94;76.31;102223.53;4989250;28;20343;-51
2022/01/22 01:02:16;;;;;;;7.18;3.42;;;;;;;2.99;75.47;102224.69;4979394;28;20061;-50
2022/01/22 01:04:43;;;;;;;6.68;3.30;;;;;;;3.01;76.31;102219.69;4981764;28;20050;-52
2022/01/22 01:07:10;;;;;;;7.43;3.63;;;;;;;3.03;75.54;102225.78;4982047;28;20100;-55
2022/01/22 01:09:38;;;;;;;8.85;3.80;;;;;;;3.06;75.74;102223.41;4988292;28;20081;-54
2022/01/22 01:12:09;;;;;;;9.95;2.97;;;;;;;3.06;75.45;102224.31;4987657;28;20668;-54
2022/01/22 01:14:42;;;;;;;7.47;3.63;;;;;;;3.10;75.58;102224.50;4990091;28;20112;-52
2022/01/22 01:17:35;;;;;;;8.75;3.40;;;;;;;3.11;74.89;102226.28;4988359;28;20054;-54
2022/01/22 01:33:57;;;;;;;9.07;3.72;;;;;;;3.04;75.47;102225.88;4973258;28;20049;-49
2022/01/22 01:36:24;;;;;;;10.40;4.20;;;;;;;3.05;75.07;102227.66;4986029;28;20046;-50
2022/01/22 01:38:56;;;;;;;8.13;3.95;;;;;;;3.05;75.31;102219.09;4987635;28;20465;-47
2022/01/22 01:41:35;;;;;;;8.25;4.60;;;;;;;3.05;74.44;102217.44;4989894;28;20478;-52
2022/01/22 01:44:02;;;;;;;13.68;4.05;;;;;;;3.04;75.23;102200.25;4987073;28;20043;-54
2022/01/22 01:46:32;;;;;;;8.68;4.00;;;;;;;3.02;74.87;102206.97;4985930;28;20060;-53
2022/01/22 01:48:59;;;;;;;5.93;2.55;;;;;;;2.95;74.95;102200.56;4987281;28;20545;-55
2022/01/22 01:51:30;;;;;;;10.85;4.22;;;;;;;2.95;75.48;102194.56;4985298;28;20042;-50
2022/01/22 01:54:05;;;;;;;9.55;4.10;;;;;;;2.93;74.94;102196.13;4990841;28;20042;-55
2022/01/22 01:59:19;;;;;;;6.63;3.13;;;;;;;2.81;75.75;102189.44;4975088;28;20068;-54
2022/01/22 02:01:46;;;;;;;7.82;4.07;;;;;;;2.83;76.60;102190.44;4985350;28;20046;-51
2022/01/22 02:04:13;;;;;;;6.68;3.47;;;;;;;2.79;75.36;102198.72;4987373;28;20481;-54
2022/01/22 02:06:41;;;;;;;9.80;4.47;;;;;;;2.85;75.69;102198.22;4985436;28;20438;-55
2022/01/22 02:09:08;;;;;;;5.40;2.22;;;;;;;2.86;75.67;102199.09;4989535;28;20446;-50
2022/01/22 02:11:37;;;;;;;8.32;4.20;;;;;;;2.86;76.62;102209.34;4987553;28;20069;-53
2022/01/22 02:25:10;;;;;;;9.20;3.47;;;;;;;2.94;75.61;102197.94;4977333;28;20108;-52
2022/01/22 02:27:37;;;;;;;9.60;2.92;;;;;;;2.94;75.33;102187.69;4986727;28;20058;-52
2022/01/22 02:30:05;;;;;;;7.30;3.35;;;;;;;2.95;75.73;102199.69;4987826;28;20104;-53
2022/01/22 02:32:55;;;;;;;7.55;3.55;;;;;;;3.00;76.16;102187.19;4984271;28;20046;-54
2022/01/22 02:35:27;;;;;;;10.93;4.72;;;;;;;3.01;75.30;102179.59;4975320;28;20046;-49
2022/01/22 02:38:03;;;;;;;6.70;2.75;;;;;;;3.01;76.64;102173.59;4987631;28;20074;-54
2022/01/22 02:40:36;;;;;;;9.48;3.72;;;;;;;3.01;75.40;102164.22;4990285;28;20643;-52
2022/01/22 02:43:02;;;;;;;8.43;4.40;;;;;;;3.03;75.80;102178.03;4984709;28;20101;-54
2022/01/22 02:45:31;;;;;;;13.27;5.13;;;;;;;3.07;76.21;102169.75;4985471;28;20050;-53
2022/01/22 02:47:58;;;;;;;11.73;4.70;;;;;;;3.12;76.47;102171.69;4987819;28;20375;-54
2022/01/22 02:50:25;;;;;;;5.88;3.05;;;;;;;3.15;75.93;102159.09;4986000;28;20050;-54
2022/01/22 02:52:51;;;;;;;8.90;4.03;;;;;;;3.21;75.93;102147.53;4988661;28;20133;-48
2022/01/22 02:55:18;;;;;;;8.60;3.25;;;;;;;3.26;75.75;102150.41;4987129;28;20173;-51
2022/01/22 02:57:45;;;;;;;11.57;5.07;;;;;;;3.27;75.67;102141.91;4987414;28;20101;-53
2022/01/22 03:00:17;;;;;;;10.10;4.63;;;;;;;3.29;74.96;102135.22;4984861;28;20407;-48
2022/01/22 03:02:44;;;;;;;9.98;4.43;;;;;;;3.30;75.63;102131.84;4987761;28;20046;-52
2022/01/22 03:05:11;;;;;;;12.60;5.50;;;;;;;3.34;75.67;102125.22;4984762;28;20050;-51
2022/01/22 03:07:40;;;;;;;8.32;4.43;;;;;;;3.37;75.32;102127.13;4989171;28;20058;-51
2022/01/22 03:10:08;;;;;;;8.38;3.72;;;;;;;3.38;75.42;102126.31;4984786;28;20058;-54
2022/01/22 03:12:52;;;;;;;11.02;4.85;;;;;;;3.41;74.90;102139.31;4986479;28;20091;-54
2022/01/22 03:18:12;;;;;;;7.50;3.42;;;;;;;3.45;75.45;102151.53;4976436;28;21889;-53
2022/01/22 03:20:59;;;;;;;7.55;3.90;;;;;;;3.45;75.73;102157.50;4987874;28;20054;-50
2022/01/22 03:29:04;;;;;;;7.32;3.58;;;;;;;3.54;75.09;102172.56;4980521;28;20058;-53
2022/01/22 03:31:31;;;;;;;9.23;3.80;;;;;;;3.57;75.07;102167.63;4986699;28;20053;-50
2022/01/22 03:33:58;;;;;;;7.85;3.63;;;;;;;3.59;75.06;102171.16;4988464;28;20042;-49
2022/01/22 03:36:28;;;;;;;5.05;2.25;;;;;;;3.58;75.59;102166.81;4972019;28;20062;-50
2022/01/22 03:38:56;;;;;;;8.80;2.58;;;;;;;3.62;75.45;102159.34;4987675;28;20046;-52
2022/01/22 03:41:23;;;;;;;7.88;3.17;;;;;;;3.64;75.11;102168.88;4983368;28;20109;-50
2022/01/22 03:43:52;;;;;;;7.00;2.65;;;;;;;3.69;74.54;102167.47;4988296;28;20592;-53
2022/01/22 03:46:19;;;;;;;6.35;3.17;;;;;;;3.66;74.52;102157.06;4986932;28;20134;-50
2022/01/22 03:48:47;;;;;;;3.40;1.33;;;;;;;3.63;74.85;102153.41;4988830;28;20494;-52
2022/01/22 03:51:14;;;;;;;3.92;1.75;;;;;;;3.65;74.80;102145.00;4968224;28;20049;-54
2022/01/22 03:53:40;;;;;;;6.57;3.15;;;;;;;3.69;74.86;102146.09;4972695;28;20042;-48
2022/01/22 03:56:07;;;;;;;6.20;3.08;;;;;;;3.72;74.32;102141.16;4985863;28;20671;-53
2022/01/22 03:58:38;;;;;;;7.97;3.50;;;;;;;3.73;74.43;102148.03;4986823;28;20112;-50
2022/01/22 04:04:13;;;;;;;5.95;3.08;;;;;;;3.73;74.79;102143.81;4972622;28;20394;-51
2022/01/22 04:07:14;;;;;;;6.18;2.80;;;;;;;3.74;74.96;102139.56;4973112;28;20083;-52
2022/01/22 04:09:29;;;;;;;10.07;3.80;;;;;;;3.75;74.56;102136.19;4974758;28;20058;-53
2022/01/22 04:11:57;;;;;;;3.60;1.88;;;;;;;3.75;75.37;102136.19;4990451;28;20112;-53
2022/01/22 04:14:28;;;;;;;7.63;2.92;;;;;;;3.76;75.25;102135.41;4987793;28;20433;-52
2022/01/22 04:17:19;;;;;;;7.03;3.15;;;;;;;3.75;74.74;102136.19;4989069;28;20046;-50
2022/01/22 04:25:20;;;;;;;7.38;3.17;;;;;;;3.82;75.16;102138.31;4971554;28;20058;-50
2022/01/22 04:27:48;;;;;;;7.18;3.08;;;;;;;3.82;74.84;102137.47;4972631;28;20100;-54
2022/01/22 04:30:15;;;;;;;8.30;2.10;;;;;;;3.84;74.82;102139.31;4984706;28;20112;-51
2022/01/22 04:32:41;;;;;;;6.30;3.28;;;;;;;3.86;75.11;102137.69;4984036;28;20129;-52
2022/01/22 04:35:08;;;;;;;9.85;4.28;;;;;;;3.89;75.15;102141.25;4988888;28;20050;-50
2022/01/22 04:37:35;;;;;;;8.18;3.70;;;;;;;3.90;75.22;102148.16;4988748;28;20054;-52
2022/01/22 04:40:02;;;;;;;8.18;3.65;;;;;;;3.90;75.11;102145.59;4987512;28;20411;-52
2022/01/22 04:42:31;;;;;;;8.18;3.53;;;;;;;3.94;74.28;102148.44;4988639;28;20062;-50
2022/01/22 04:45:06;;;;;;;7.70;3.53;;;;;;;3.94;74.71;102157.78;4987855;28;20050;-49
2022/01/22 04:55:52;;;;;;;8.43;3.40;;;;;;;3.96;74.75;102157.06;4973241;28;20108;-55
2022/01/22 04:58:19;;;;;;;9.73;4.75;;;;;;;4.00;74.59;102145.34;4987748;28;20097;-53
2022/01/22 05:00:46;;;;;;;8.88;4.28;;;;;;;4.00;74.68;102147.91;4989900;28;20499;-53
2022/01/22 05:03:15;;;;;;;11.13;4.10;;;;;;;3.98;74.54;102149.47;4987568;28;20449;-53
2022/01/22 05:05:42;;;;;;;8.65;3.22;;;;;;;4.01;74.84;102149.66;4989829;28;20104;-53
2022/01/22 05:08:09;;;;;;;10.23;4.00;;;;;;;4.02;74.81;102166.81;4986100;28;20054;-55
2022/01/22 05:10:35;;;;;;;9.82;4.20;;;;;;;4.03;74.78;102158.34;4988316;28;20050;-50
2022/01/22 05:13:02;;;;;;;8.70;3.88;;;;;;;4.03;74.83;102163.47;4989082;28;20050;-50
2022/01/22 05:15:29;;;;;;;7.43;3.88;;;;;;;4.03;74.67;102168.59;4989434;28;20055;-50
2022/01/22 05:17:56;;;;;;;8.50;3.58;;;;;;;4.04;74.68;102167.78;4986415;28;20054;-53
2022/01/22 05:20:25;;;;;;;6.63;3.30;;;;;;;4.05;74.87;102167.00;4990073;28;20108;-52
2022/01/22 05:23:07;;;;;;;8.40;3.25;;;;;;;4.06;74.71;102166.19;4986340;28;20542;-51
2022/01/22 05:25:40;;;;;;;5.20;2.03;;;;;;;4.04;74.94;102170.34;4988010;28;20113;-53
2022/01/22 05:31:03;;;;;;;6.13;2.75;;;;;;;4.06;74.74;102173.88;4985970;28;20105;-52
2022/01/22 05:39:10;;;;;;;5.13;2.58;;;;;;;4.05;74.69;102187.50;4974694;28;20047;-52
2022/01/22 05:41:39;;;;;;;7.70;2.70;;;;;;;4.07;74.99;102188.50;4988628;28;20498;-54
2022/01/22 05:44:06;;;;;;;6.05;2.25;;;;;;;4.02;74.64;102176.19;4987598;28;20050;-52
2022/01/22 05:46:33;;;;;;;6.97;3.05;;;;;;;4.03;74.26;102178.84;4987337;28;20047;-51
2022/01/22 05:49:00;;;;;;;4.93;2.65;;;;;;;4.03;74.25;102178.84;4976694;28;20100;-53
2022/01/22 05:51:27;;;;;;;4.95;2.67;;;;;;;4.01;74.58;102180.44;4988192;28;20502;-54
2022/01/22 05:54:18;;;;;;;5.30;2.17;;;;;;;3.97;74.41;102178.47;4986698;28;20054;-53
2022/01/22 05:59:42;;;;;;;3.78;2.17;;;;;;;3.92;74.59;102195.28;4973788;28;20521;-53
2022/01/22 06:02:14;;;;;;;5.57;2.25;;;;;;;3.89;73.99;102200.22;4987442;28;20046;-57
2022/01/22 06:04:42;;;;;;;8.98;2.90;;;;;;;3.91;74.01;102196.06;4990513;28;20042;-49
2022/01/22 06:07:10;;;;;;;6.07;2.50;;;;;;;3.93;74.54;102203.06;4983232;28;20054;-52
2022/01/22 06:09:41;;;;;;;6.30;2.78;;;;;;;3.90;74.23;102199.41;4967701;28;20050;-52
2022/01/22 06:12:16;;;;;;;6.03;2.35;;;;;;;3.91;74.08;102204.66;4986073;28;20536;-51
2022/01/22 06:14:43;;;;;;;6.30;2.30;;;;;;;3.90;74.66;102204.56;4989644;28;20100;-53
2022/01/22 06:17:10;;;;;;;5.32;2.67;;;;;;;3.90;74.46;102207.13;4988399;28;20074;-51
2022/01/22 06:19:36;;;;;;;7.85;2.83;;;;;;;3.90;74.38;102209.69;4966558;28;20050;-52
2022/01/22 06:22:03;;;;;;;5.38;2.17;;;;;;;3.92;74.50;102210.66;4987168;28;20474;-49
2022/01/22 06:24:30;;;;;;;4.70;1.85;;;;;;;3.90;73.86;102208.00;4988820;28;20093;-55
2022/01/22 06:26:58;;;;;;;5.93;2.17;;;;;;;3.87;74.69;102210.38;4987309;28;20042;-50
2022/01/22 06:29:25;;;;;;;6.15;2.58;;;;;;;3.81;74.37;102213.47;4986129;28;20058;-49
2022/01/22 06:31:52;;;;;;;5.38;2.20;;;;;;;3.78;74.47;102212.41;4986722;28;20065;-49
2022/01/22 06:34:19;;;;;;;6.20;2.83;;;;;;;3.72;74.46;102207.81;4985522;28;20129;-54
2022/01/22 06:36:45;;;;;;;6.20;2.55;;;;;;;3.68;74.04;102205.84;4988373;28;20050;-56
2022/01/22 06:39:15;;;;;;;6.82;2.50;;;;;;;3.59;73.79;102212.16;4985185;28;20103;-54
2022/01/22 06:41:46;;;;;;;;;;;;;;;3.48;73.71;102218.34;4983460;28;20043;-54
2022/01/22 06:44:17;;;;;;;4.65;2.00;;;;;;;3.48;74.72;102210.66;4985612;28;19952;-53
2022/01/22 06:46:48;;;;;;;3.88;1.83;;;;;;;3.44;74.24;102211.22;4986024;28;20054;-51
2022/01/22 06:49:15;;;;;;;4.75;2.15;;;;;;;3.40;74.95;102214.38;4985940;28;20085;-53
2022/01/22 06:51:42;;;;;;;5.82;2.17;;;;;;;3.36;74.96;102215.00;4985405;28;20353;-53
2022/01/22 06:54:11;;;;;;;5.20;2.05;;;;;;;3.33;75.18;102219.16;4984761;28;20038;-49
2022/01/22 06:56:38;;;;;;;3.92;1.92;;;;;;;3.29;74.00;102224.88;4986028;28;20057;-52
2022/01/22 06:59:06;;;;;;;5.00;2.40;;;;;;;3.26;74.19;102232.34;4987000;28;20047;-51
2022/01/22 07:01:33;;;;;;;3.65;1.70;;;;;;;3.22;74.78;102230.41;4986517;28;20054;-52
2022/01/22 07:03:59;;;;;;;5.63;2.00;;;;;;;3.16;74.40;102230.00;4984955;28;20042;-51
2022/01/22 07:06:26;;;;;;;4.75;1.77;;;;;;;3.11;74.06;102221.16;4967069;28;20050;-53
2022/01/22 07:08:53;;;;;;;4.95;2.30;;;;;;;3.07;74.56;102210.72;4967955;28;20051;-52
2022/01/22 07:11:20;;;;;;;6.65;2.05;;;;;;;3.02;75.57;102212.09;4965123;28;20051;-50
2022/01/22 07:13:47;;;;;;;4.57;2.17;;;;;;;2.99;74.08;102211.91;4963453;28;20046;-53
2022/01/22 07:16:14;;;;;;;5.18;2.92;;;;;;;2.93;75.18;102199.59;4961260;28;20088;-53
2022/01/22 07:18:42;;;;;;;5.05;2.17;;;;;;;2.90;75.32;102198.53;4968550;28;20061;-50
2022/01/22 07:21:15;;;;;;;3.83;1.63;;;;;;;2.85;74.32;102197.31;4951240;28;20050;-50
2022/01/22 07:24:22;;;;;;;5.45;2.25;;;;;;;2.81;75.56;102192.00;4966451;28;21812;-54
2022/01/22 07:26:30;;;;;;;6.47;2.17;;;;;;;2.77;74.42;102200.28;4954461;28;20055;-54
2022/01/22 07:28:57;;;;;;;6.30;1.80;;;;;;;2.75;75.74;102201.88;4967992;28;20043;-47
2022/01/22 07:31:26;;;;;;;5.72;1.85;;;;;;;2.73;74.60;102200.88;4967291;28;20106;-51
2022/01/22 07:33:53;;;;;;;3.70;1.90;;;;;;;2.70;75.58;102195.56;4966608;28;20050;-55
2022/01/22 07:36:19;;;;;;;4.28;1.98;;;;;;;2.68;75.54;102189.47;4966443;28;20047;-52
2022/01/22 07:38:46;;;;;;;4.38;1.85;;;;;;;2.66;76.39;102198.69;4965268;28;20194;-55
2022/01/22 07:41:12;;;;;;;3.28;1.23;;;;;;;2.65;75.75;102209.72;4966524;28;20062;-53
2022/01/22 07:43:40;;;;;;;4.95;1.85;;;;;;;2.64;75.79;102218.22;4966197;28;20058;-51
2022/01/22 07:46:08;;;;;;;5.32;1.85;;;;;;;2.63;75.14;102214.75;4954793;28;20407;-54
2022/01/22 07:48:35;;;;;;;4.53;1.90;;;;;;;2.61;76.04;102218.00;4967613;28;20049;-51
2022/01/22 07:51:02;;;;;;;5.93;1.60;;;;;;;2.61;75.03;102218.00;4961790;28;20059;-50
2022/01/22 07:53:29;;;;;;;4.70;1.67;;;;;;;2.60;75.05;102239.25;4963044;28;20458;-50
2022/01/22 07:55:55;;;;;;;4.82;2.13;;;;;;;2.61;74.89;102233.34;4959383;28;20628;-48
2022/01/22 07:58:22;;;;;;;5.80;2.53;;;;;;;2.62;75.14;102235.13;4965322;28;20094;-53
2022/01/22 08:00:48;;;;;;;8.15;2.38;;;;;;;2.64;75.24;102233.56;4964659;28;20097;-53
2022/01/22 08:03:15;;;;;;;5.75;2.40;;;;;;;2.65;75.25;102236.22;4963691;28;20058;-49
2022/01/22 08:05:44;;;;;;;5.65;2.42;;;;;;;2.67;75.07;102233.75;4963808;28;20054;-53
2022/01/22 08:08:10;;;;;;;6.28;2.05;;;;;;;2.72;75.01;102232.38;4959580;28;20047;-47
2022/01/22 08:10:37;;;;;;;7.00;3.10;;;;;;;2.77;76.30;102231.00;4966295;28;20082;-52
2022/01/22 08:13:04;;;;;;;5.28;2.67;;;;;;;2.82;74.80;102233.84;4966821;28;20100;-51
2022/01/22 08:15:30;;;;;;;6.68;1.73;;;;;;;2.87;75.88;102231.59;4967074;28;20572;-53
2022/01/22 08:18:00;;;;;;;6.55;2.42;;;;;;;2.92;75.78;102233.69;4960187;28;20051;-53
2022/01/22 08:20:27;;;;;;;8.10;3.03;;;;;;;2.96;74.97;102227.06;4963664;28;20050;-55
2022/01/22 08:22:53;;;;;;;9.95;2.92;;;;;;;2.98;76.04;102225.50;4962211;28;20042;-54
2022/01/22 08:25:20;;;;;;;4.82;2.13;;;;;;;3.01;75.83;102230.78;4965107;28;20059;-54
2022/01/22 08:30:36;;;;;;;6.43;2.50;;;;;;;3.30;76.01;102224.06;4952931;28;20102;-51
2022/01/22 08:35:52;;;;;;;8.45;1.95;;;;;;;3.53;74.83;102223.72;4960628;28;20047;-54
2022/01/22 08:35:53;;;;;;;6.32;3.00;;;;;;;3.77;74.66;102226.91;4950481;28;20427;-52
2022/01/22 08:38:22;;;;;;;9.90;2.80;;;;;;;4.02;74.30;102232.63;4966644;28;20411;-53
2022/01/22 08:40:49;;;;;;;8.10;2.47;;;;;;;4.26;74.20;102242.56;4962012;28;20054;-48
2022/01/22 08:43:22;;;;;;;8.65;3.05;;;;;;;4.49;74.42;102243.88;4949324;28;20510;-61
2022/01/22 09:04:27;;;;;;;8.90;3.75;;;;;;;7.88;69.30;102235.97;5050471;28;20923;-51
2022/01/22 09:06:54;;;;;;;11.80;4.47;;;;;;;8.51;68.30;102238.56;5002209;28;20553;-58
2022/01/22 09:09:21;;;;;;;4.95;2.40;;;;;;;9.00;66.89;102250.94;5025138;28;20112;-56
2022/01/22 09:11:47;;;;;;;7.18;2.75;;;;;;;9.25;66.90;102246.69;5012638;28;20049;-56
2022/01/22 09:14:16;;;;;;;11.70;4.93;;;;;;;9.57;65.89;102250.44;5014893;28;20045;-52
2022/01/22 09:16:45;;;;;;;9.40;3.05;;;;;;;9.91;65.13;102249.06;5018822;28;21066;-56
2022/01/22 09:19:13;;;;;;;8.75;4.00;;;;;;;10.19;64.68;102239.66;5016547;28;20045;-54
2022/01/22 09:21:43;;;;;;;8.05;3.80;;;;;;;10.55;64.21;102248.66;5022356;28;20104;-54
2022/01/22 09:24:12;;;;;;;4.88;2.45;;;;;;;10.83;62.65;102246.94;5009938;28;20452;-54
2022/01/22 09:26:39;;;;;;;7.90;4.55;;;;;;;10.97;62.49;102244.78;5031915;28;20568;-48
2022/01/22 09:29:05;;;;;;;7.80;3.78;;;;;;;11.23;63.22;102231.75;5014087;28;20574;-50
2022/01/22 09:31:33;;;;;;;6.75;2.72;;;;;;;11.66;61.82;102239.88;5019117;28;20041;-53
2022/01/22 09:34:01;;;;;;;4.32;2.40;;;;;;;12.33;60.47;102239.06;5014463;28;20136;-47
2022/01/22 09:36:30;;;;;;;4.55;3.08;;;;;;;13.16;59.57;102232.28;5000912;28;20049;-43
2022/01/22 09:57:33;;;;;;;6.63;4.40;;;;;;;17.80;43.25;102221.22;4957941;28;20412;-59
2022/01/22 10:00:00;;;;;;;7.07;3.63;;;;;;;18.10;44.25;102230.03;4943320;28;20158;-58
2022/01/22 10:02:27;;;;;;;4.30;2.55;;;;;;;18.30;44.01;102228.31;4937116;28;20663;-58
2022/01/22 10:04:55;;;;;;;7.38;3.45;;;;;;;18.69;44.20;102231.78;4933178;28;20126;-59
2022/01/22 10:07:23;;;;;;;5.47;3.22;;;;;;;19.14;43.95;102231.66;4936505;28;20079;-59
2022/01/22 10:09:57;;;;;;;8.00;4.63;;;;;;;19.60;42.48;102239.34;4933815;28;20503;-57
2022/01/22 10:12:25;;;;;;;8.23;3.53;;;;;;;20.00;41.62;102239.09;4938537;28;20823;-58
2022/01/22 10:15:13;;;;;;;8.07;3.92;;;;;;;20.21;41.09;102229.31;4937680;28;20051;-59
2022/01/22 10:17:44;;;;;;;8.90;4.05;;;;;;;20.67;41.21;102229.78;4933911;28;20047;-59
2022/01/22 10:20:30;;;;;;;52.05;19.95;;;;;;;20.91;39.83;102227.78;4935309;28;20596;-60
2022/01/22 10:23:01;;;;;;;17.80;10.10;;;;;;;21.18;39.25;102231.84;4936773;28;20122;-58
2022/01/22 10:25:35;;;;;;;9.45;6.25;;;;;;;21.28;37.08;102227.31;4937301;28;20055;-57
2022/01/22 10:28:06;;;;;;;4.93;3.67;;;;;;;21.16;38.52;102232.75;4929063;28;20874;-57
2022/01/22 10:47:02;;;;;;;9.60;5.32;;;;;;;20.56;34.25;102237.75;5068188;27;20425;-57
2022/01/22 10:49:29;;;;;;;18.65;10.95;;;;;;;20.32;35.35;102233.59;5054336;28;20068;-56
2022/01/22 10:52:04;;;;;;;8.88;5.85;;;;;;;19.62;35.59;102238.44;5059101;28;20099;-58
2022/01/22 10:54:32;;;;;;;6.90;4.90;;;;;;;19.23;36.11;102241.28;5073611;28;20077;-58
2022/01/22 10:57:21;;;;;;;6.15;4.00;;;;;;;18.52;36.33;102250.16;5054233;28;20083;-57
2022/01/22 10:59:50;;;;;;;7.50;4.10;;;;;;;17.76;38.28;102250.06;5056988;28;20061;-59
2022/01/22 11:02:30;;;;;;;10.30;4.47;;;;;;;16.79;38.97;102252.22;5056769;28;20056;-59
2022/01/22 11:04:57;;;;;;;7.18;3.53;;;;;;;15.74;41.23;102239.97;5081917;28;20132;-58
2022/01/22 11:07:23;;;;;;;8.77;4.63;;;;;;;15.24;41.38;102234.16;5077379;28;20117;-58
2022/01/22 11:09:58;;;;;;;9.60;4.95;;;;;;;14.88;41.82;102242.38;5076797;28;20048;-59
2022/01/22 11:12:25;;;;;;;7.50;4.60;;;;;;;14.45;42.60;102241.69;5070495;28;20045;-59
2022/01/22 11:14:51;;;;;;;6.30;3.78;;;;;;;13.99;44.17;102237.44;5055925;28;20037;-57
2022/01/22 11:17:18;;;;;;;11.80;4.55;;;;;;;13.57;44.68;102234.00;5059794;28;20567;-60
2022/01/22 11:19:48;;;;;;;8.95;4.88;;;;;;;13.30;45.15;102243.88;5076513;28;20045;-59
2022/01/22 11:22:17;;;;;;;7.80;3.65;;;;;;;12.85;45.34;102238.59;5071848;28;20053;-59
2022/01/22 11:24:47;;;;;;;9.27;6.53;;;;;;;12.57;47.04;102243.09;5065317;28;20437;-59
2022/01/22 11:27:15;;;;;;;;;;;;;;;12.07;47.52;102236.69;5078647;28;20106;-59
2022/01/22 11:30:03;;;;;;;6.30;3.70;;;;;;;11.87;47.61;102232.63;5061721;28;19974;-59
2022/01/22 11:32:43;;;;;;;7.57;3.75;;;;;;;11.63;47.79;102238.91;5079037;28;20052;-60
2022/01/22 11:35:13;;;;;;;5.70;3.00;;;;;;;11.36;48.72;102238.16;5081447;28;20122;-58
2022/01/22 11:37:46;;;;;;;8.43;4.28;;;;;;;11.30;49.16;102240.56;5078406;28;20048;-59
2022/01/22 11:40:32;;;;;;;6.47;3.65;;;;;;;11.17;50.17;102239.31;5081190;27;20050;-59
2022/01/22 11:43:11;;;;;;;9.00;3.80;;;;;;;11.08;50.19;102246.84;5077046;28;21321;-59
2022/01/22 11:45:44;;;;;;;7.43;3.50;;;;;;;10.79;51.45;102242.50;5078755;28;20081;-59
2022/01/22 11:48:14;;;;;;;11.40;4.78;;;;;;;10.78;51.36;102243.34;5060114;28;20044;-60
2022/01/22 11:50:41;;;;;;;10.00;4.20;;;;;;;10.67;51.57;102241.28;5066786;28;20060;-58
2022/01/22 11:53:29;;;;;;;11.90;3.80;;;;;;;10.54;51.84;102242.59;5061539;28;20122;-58
2022/01/22 11:56:23;;;;;;;8.07;3.70;;;;;;;10.55;52.08;102246.06;5067283;28;20048;-60
2022/01/22 11:59:19;;;;;;;8.88;3.92;;;;;;;10.32;52.31;102245.25;5070657;28;20089;-57
2022/01/22 12:01:53;;;;;;;7.85;4.15;;;;;;;10.15;52.98;102237.78;5064183;28;20109;-57
2022/01/22 12:04:22;;;;;;;9.35;4.45;;;;;;;10.08;53.20;102233.22;5081108;28;20055;-58
2022/01/22 12:07:10;;;;;;;9.38;3.97;;;;;;;9.81;53.75;102237.50;5068995;28;20048;-59
2022/01/22 12:09:53;;;;;;;8.70;3.95;;;;;;;9.68;54.05;102231.00;5066797;28;20041;-57
2022/01/22 12:15:40;;;;;;;8.65;3.90;;;;;;;9.50;54.44;102229.50;5062584;28;20107;-59
2022/01/22 12:18:13;;;;;;;6.80;3.50;;;;;;;9.42;54.67;102230.91;5063721;28;20052;-58
2022/01/22 12:23:54;;;;;;;9.55;3.40;;;;;;;9.21;55.99;102229.28;5065575;28;20082;-60
2022/01/22 12:26:44;;;;;;;8.25;3.90;;;;;;;9.13;56.05;102226.41;5062584;28;20495;-58
2022/01/22 12:29:32;;;;;;;6.93;3.58;;;;;;;9.14;55.82;102232.47;5064372;28;20056;-59
2022/01/22 12:32:18;;;;;;;9.45;3.50;;;;;;;9.07;56.51;102227.88;5062456;28;20094;-60
2022/01/22 12:34:55;;;;;;;6.88;3.47;;;;;;;8.97;56.79;102230.13;5062337;28;20107;-58
2022/01/22 12:37:23;;;;;;;19.88;6.72;;;;;;;8.94;56.89;102230.00;5063544;28;20659;-58
2022/01/22 12:39:53;;;;;;;18.25;5.78;;;;;;;8.85;56.94;102225.34;5056495;28;20106;-58
2022/01/22 12:42:31;;;;;;;;;;;;;;;8.77;58.07;102228.44;5066148;28;20052;-59
2022/01/22 12:44:59;;;;;;;8.45;4.05;;;;;;;8.89;57.61;102234.09;5060631;28;19920;-59
2022/01/22 12:47:27;;;;;;;10.75;4.15;;;;;;;8.83;57.84;102232.16;5061239;28;20514;-58
2022/01/22 12:50:00;;;;;;;8.70;3.35;;;;;;;8.77;58.13;102236.19;5061612;28;20106;-59
2022/01/22 12:52:28;;;;;;;10.20;3.67;;;;;;;8.76;57.20;102235.31;5065489;28;20082;-59
2022/01/22 12:54:58;;;;;;;6.90;3.80;;;;;;;8.70;58.13;102235.94;5063522;28;20056;-59
2022/01/22 12:57:45;;;;;;;8.35;3.40;;;;;;;8.66;58.73;102239.22;5066256;28;20144;-56
2022/01/22 13:00:16;;;;;;;8.88;4.22;;;;;;;8.63;58.03;102231.34;5065010;28;20052;-53
2022/01/22 13:02:47;;;;;;;11.55;3.65;;;;;;;8.58;58.94;102230.28;5061616;28;20109;-50
2022/01/22 13:05:16;;;;;;;9.07;4.05;;;;;;;8.57;58.42;102224.22;5061153;28;20326;-42
2022/01/22 13:07:52;;;;;;;8.05;3.92;;;;;;;8.49;58.46;102221.28;5059797;28;20056;-51
2022/01/22 13:10:28;;;;;;;7.30;3.35;;;;;;;8.53;59.44;102221.41;5059498;28;20044;-55
2022/01/22 13:12:57;;;;;;;6.20;3.13;;;;;;;8.45;59.12;102214.25;5058321;28;20101;-52
2022/01/22 13:15:24;;;;;;;7.90;4.28;;;;;;;8.41;59.05;102217.50;5070630;28;20109;-51
2022/01/22 13:17:56;;;;;;;9.43;4.10;;;;;;;8.39;60.09;102208.84;5062061;28;20094;-50
2022/01/22 13:20:25;;;;;;;7.50;3.83;;;;;;;8.39;60.01;102213.13;5065093;28;21898;-49
2022/01/22 13:22:53;;;;;;;8.80;3.83;;;;;;;8.37;59.29;102213.03;5061059;28;20049;-53
2022/01/22 13:25:24;;;;;;;12.20;4.97;;;;;;;8.42;59.84;102211.56;5061884;28;20067;-47
2022/01/22 13:28:01;;;;;;;6.47;3.45;;;;;;;8.39;59.92;102214.00;5059704;28;20048;-54
2022/01/22 13:30:32;;;;;;;11.68;5.00;;;;;;;8.40;59.57;102223.50;5062042;28;20044;-47
2022/01/22 13:33:04;;;;;;;9.90;3.70;;;;;;;8.41;59.73;102220.09;5058062;28;20044;-50
2022/01/22 13:36:09;;;;;;;8.15;4.28;;;;;;;8.40;60.56;102215.75;5061063;28;20099;-51
2022/01/22 13:38:54;;;;;;;8.40;3.60;;;;;;;8.41;60.60;102221.81;5058021;28;20146;-50
2022/01/22 13:49:41;;;;;;;9.43;3.85;;;;;;;8.34;59.96;102212.91;5061203;28;20198;-58
2022/01/22 13:52:15;;;;;;;8.20;4.03;;;;;;;8.36;60.08;102203.53;5059096;28;20060;-59
2022/01/22 13:54:45;;;;;;;8.80;3.35;;;;;;;8.28;61.00;102200.63;5055510;28;20053;-56
2022/01/22 13:57:18;;;;;;;7.88;3.25;;;;;;;8.27;61.70;102209.19;5059599;28;20060;-58
2022/01/22 13:59:48;;;;;;;10.45;3.75;;;;;;;8.30;61.36;102208.44;5058196;28;20150;-59
2022/01/22 14:05:08;;;;;;;14.63;5.43;;;;;;;8.29;60.02;102202.41;5057153;28;20083;-54